sensor_id;sensor_type;location;lat;lon;timestamp;P1;durP1;ratioP1;P2;durP2;ratioP2
36839;SDS011;24406;51.640;9.566;2023-07-31T00:04:37;2.80;;;2.03;;
36839;SDS011;24406;51.640;9.566;2023-07-31T00:09:38;3.55;;;2.20;;
36839;SDS011;24406;51.640;9.566;2023-07-31T00:14:40;3.13;;;2.50;;
36839;SDS011;24406;51.640;9.566;2023-07-31T00:19:42;4.22;;;2.10;;
36839;SDS011;24406;51.640;9.566;2023-07-31T00:24:46;4.10;;;3.15;;
36839;SDS011;24406;51.640;9.566;2023-07-31T00:29:47;4.18;;;2.75;;
36839;SDS011;24406;51.640;9.566;2023-07-31T00:34:50;6.68;;;3.38;;
36839;SDS011;24406;51.640;9.566;2023-07-31T00:39:52;4.00;;;2.40;;
36839;SDS011;24406;51.640;9.566;2023-07-31T00:44:55;3.50;;;2.30;;
36839;SDS011;24406;51.640;9.566;2023-07-31T00:49:58;4.22;;;2.65;;
36839;SDS011;24406;51.640;9.566;2023-07-31T00:54:59;4.32;;;2.10;;
36839;SDS011;24406;51.640;9.566;2023-07-31T01:00:01;3.58;;;2.35;;
36839;SDS011;24406;51.640;9.566;2023-07-31T01:05:04;3.72;;;2.28;;
36839;SDS011;24406;51.640;9.566;2023-07-31T01:10:08;4.88;;;1.98;;
36839;SDS011;24406;51.640;9.566;2023-07-31T01:15:12;4.10;;;2.38;;
36839;SDS011;24406;51.640;9.566;2023-07-31T01:20:18;4.22;;;2.15;;
36839;SDS011;24406;51.640;9.566;2023-07-31T01:25:28;4.75;;;2.35;;
36839;SDS011;24406;51.640;9.566;2023-07-31T01:30:43;3.00;;;2.10;;
36839;SDS011;24406;51.640;9.566;2023-07-31T01:35:46;4.03;;;2.00;;
36839;SDS011;24406;51.640;9.566;2023-07-31T01:40:51;2.70;;;2.20;;
36839;SDS011;24406;51.640;9.566;2023-07-31T01:45:54;2.35;;;2.13;;
36839;SDS011;24406;51.640;9.566;2023-07-31T01:51:00;2.33;;;1.80;;
36839;SDS011;24406;51.640;9.566;2023-07-31T01:56:01;2.83;;;2.33;;
36839;SDS011;24406;51.640;9.566;2023-07-31T02:01:06;2.38;;;2.10;;
36839;SDS011;24406;51.640;9.566;2023-07-31T02:06:08;2.75;;;2.10;;
36839;SDS011;24406;51.640;9.566;2023-07-31T02:11:09;4.32;;;2.13;;
36839;SDS011;24406;51.640;9.566;2023-07-31T02:16:12;3.65;;;2.40;;
36839;SDS011;24406;51.640;9.566;2023-07-31T02:21:15;4.88;;;2.35;;
36839;SDS011;24406;51.640;9.566;2023-07-31T02:26:16;3.42;;;2.33;;
36839;SDS011;24406;51.640;9.566;2023-07-31T02:31:19;5.38;;;2.38;;
36839;SDS011;24406;51.640;9.566;2023-07-31T02:36:21;3.00;;;2.35;;
36839;SDS011;24406;51.640;9.566;2023-07-31T02:41:23;3.08;;;2.17;;
36839;SDS011;24406;51.640;9.566;2023-07-31T02:46:26;4.75;;;2.20;;
36839;SDS011;24406;51.640;9.566;2023-07-31T02:51:27;3.85;;;2.30;;
36839;SDS011;24406;51.640;9.566;2023-07-31T02:56:29;2.42;;;2.22;;
36839;SDS011;24406;51.640;9.566;2023-07-31T03:01:31;3.40;;;2.30;;
36839;SDS011;24406;51.640;9.566;2023-07-31T03:06:33;3.75;;;2.67;;
36839;SDS011;24406;51.640;9.566;2023-07-31T03:11:34;4.05;;;2.20;;
36839;SDS011;24406;51.640;9.566;2023-07-31T03:16:37;3.85;;;2.78;;
36839;SDS011;24406;51.640;9.566;2023-07-31T03:21:39;3.53;;;2.70;;
36839;SDS011;24406;51.640;9.566;2023-07-31T03:26:40;3.38;;;2.47;;
36839;SDS011;24406;51.640;9.566;2023-07-31T03:31:43;5.28;;;2.78;;
36839;SDS011;24406;51.640;9.566;2023-07-31T03:36:45;3.38;;;2.55;;
36839;SDS011;24406;51.640;9.566;2023-07-31T03:41:46;3.22;;;2.70;;
36839;SDS011;24406;51.640;9.566;2023-07-31T03:46:51;4.35;;;2.45;;
36839;SDS011;24406;51.640;9.566;2023-07-31T03:51:53;5.25;;;3.88;;
36839;SDS011;24406;51.640;9.566;2023-07-31T03:56:55;3.40;;;3.15;;
36839;SDS011;24406;51.640;9.566;2023-07-31T04:01:58;5.18;;;3.53;;
36839;SDS011;24406;51.640;9.566;2023-07-31T04:06:59;3.72;;;3.33;;
36839;SDS011;24406;51.640;9.566;2023-07-31T04:12:01;4.15;;;3.75;;
36839;SDS011;24406;51.640;9.566;2023-07-31T04:17:04;5.53;;;3.92;;
36839;SDS011;24406;51.640;9.566;2023-07-31T04:22:05;5.00;;;4.40;;
36839;SDS011;24406;51.640;9.566;2023-07-31T04:27:07;6.35;;;4.20;;
36839;SDS011;24406;51.640;9.566;2023-07-31T04:32:10;6.60;;;4.32;;
36839;SDS011;24406;51.640;9.566;2023-07-31T04:37:11;5.72;;;4.82;;
36839;SDS011;24406;51.640;9.566;2023-07-31T04:42:13;7.80;;;4.53;;
36839;SDS011;24406;51.640;9.566;2023-07-31T04:47:15;4.95;;;4.45;;
36839;SDS011;24406;51.640;9.566;2023-07-31T04:52:17;6.57;;;4.68;;
36839;SDS011;24406;51.640;9.566;2023-07-31T04:57:18;7.22;;;4.57;;
36839;SDS011;24406;51.640;9.566;2023-07-31T05:02:21;6.30;;;4.43;;
36839;SDS011;24406;51.640;9.566;2023-07-31T05:07:24;9.50;;;4.28;;
36839;SDS011;24406;51.640;9.566;2023-07-31T05:12:26;5.43;;;3.40;;
36839;SDS011;24406;51.640;9.566;2023-07-31T05:17:29;8.43;;;3.97;;
36839;SDS011;24406;51.640;9.566;2023-07-31T05:22:30;4.28;;;3.55;;
36839;SDS011;24406;51.640;9.566;2023-07-31T05:27:32;5.43;;;3.83;;
36839;SDS011;24406;51.640;9.566;2023-07-31T05:32:34;5.53;;;3.80;;
36839;SDS011;24406;51.640;9.566;2023-07-31T05:37:36;4.13;;;3.70;;
36839;SDS011;24406;51.640;9.566;2023-07-31T05:42:37;6.43;;;4.20;;
36839;SDS011;24406;51.640;9.566;2023-07-31T05:47:40;8.02;;;4.45;;
36839;SDS011;24406;51.640;9.566;2023-07-31T05:52:42;7.60;;;3.95;;
36839;SDS011;24406;51.640;9.566;2023-07-31T05:57:43;7.53;;;3.70;;
36839;SDS011;24406;51.640;9.566;2023-07-31T06:02:47;7.65;;;3.70;;
36839;SDS011;24406;51.640;9.566;2023-07-31T06:07:49;7.63;;;3.63;;
36839;SDS011;24406;51.640;9.566;2023-07-31T06:12:51;4.50;;;3.05;;
36839;SDS011;24406;51.640;9.566;2023-07-31T06:17:55;6.20;;;3.70;;
36839;SDS011;24406;51.640;9.566;2023-07-31T06:22:58;6.10;;;3.33;;
36839;SDS011;24406;51.640;9.566;2023-07-31T06:28:00;5.22;;;3.45;;
36839;SDS011;24406;51.640;9.566;2023-07-31T06:33:05;8.27;;;4.20;;
36839;SDS011;24406;51.640;9.566;2023-07-31T06:38:07;6.00;;;4.15;;
36839;SDS011;24406;51.640;9.566;2023-07-31T06:43:08;6.22;;;3.80;;
36839;SDS011;24406;51.640;9.566;2023-07-31T06:48:13;7.18;;;4.43;;
36839;SDS011;24406;51.640;9.566;2023-07-31T06:53:16;6.63;;;4.20;;
36839;SDS011;24406;51.640;9.566;2023-07-31T06:58:18;6.93;;;4.30;;
36839;SDS011;24406;51.640;9.566;2023-07-31T07:03:21;6.40;;;3.95;;
36839;SDS011;24406;51.640;9.566;2023-07-31T07:08:23;7.63;;;3.63;;
36839;SDS011;24406;51.640;9.566;2023-07-31T07:13:26;7.70;;;4.40;;
36839;SDS011;24406;51.640;9.566;2023-07-31T07:18:29;9.57;;;4.22;;
36839;SDS011;24406;51.640;9.566;2023-07-31T07:23:31;6.47;;;3.80;;
36839;SDS011;24406;51.640;9.566;2023-07-31T07:28:32;9.27;;;4.00;;
36839;SDS011;24406;51.640;9.566;2023-07-31T07:33:35;7.32;;;4.40;;
36839;SDS011;24406;51.640;9.566;2023-07-31T07:38:37;5.40;;;4.20;;
36839;SDS011;24406;51.640;9.566;2023-07-31T07:43:39;7.35;;;4.05;;
36839;SDS011;24406;51.640;9.566;2023-07-31T07:48:42;7.55;;;4.10;;
36839;SDS011;24406;51.640;9.566;2023-07-31T07:53:43;7.32;;;3.92;;
36839;SDS011;24406;51.640;9.566;2023-07-31T07:58:48;17.17;;;3.90;;
36839;SDS011;24406;51.640;9.566;2023-07-31T08:03:51;7.05;;;3.88;;
36839;SDS011;24406;51.640;9.566;2023-07-31T08:08:52;5.38;;;3.97;;
36839;SDS011;24406;51.640;9.566;2023-07-31T08:13:54;5.68;;;4.15;;
36839;SDS011;24406;51.640;9.566;2023-07-31T08:18:57;5.35;;;3.22;;
36839;SDS011;24406;51.640;9.566;2023-07-31T08:23:58;5.55;;;3.38;;
36839;SDS011;24406;51.640;9.566;2023-07-31T08:29:00;4.88;;;3.00;;
36839;SDS011;24406;51.640;9.566;2023-07-31T08:34:03;3.92;;;3.25;;
36839;SDS011;24406;51.640;9.566;2023-07-31T08:39:04;4.97;;;2.97;;
36839;SDS011;24406;51.640;9.566;2023-07-31T08:44:06;4.63;;;3.30;;
36839;SDS011;24406;51.640;9.566;2023-07-31T08:49:09;5.13;;;2.95;;
36839;SDS011;24406;51.640;9.566;2023-07-31T08:54:11;8.48;;;3.00;;
36839;SDS011;24406;51.640;9.566;2023-07-31T08:59:13;7.07;;;3.70;;
36839;SDS011;24406;51.640;9.566;2023-07-31T09:04:18;6.90;;;3.65;;
36839;SDS011;24406;51.640;9.566;2023-07-31T09:09:21;3.83;;;3.13;;
36839;SDS011;24406;51.640;9.566;2023-07-31T09:14:22;6.10;;;3.83;;
36839;SDS011;24406;51.640;9.566;2023-07-31T09:19:29;8.23;;;3.92;;
36839;SDS011;24406;51.640;9.566;2023-07-31T09:24:34;6.77;;;3.77;;
36839;SDS011;24406;51.640;9.566;2023-07-31T09:29:36;6.20;;;4.13;;
36839;SDS011;24406;51.640;9.566;2023-07-31T09:34:38;5.30;;;3.85;;
36839;SDS011;24406;51.640;9.566;2023-07-31T09:39:46;5.82;;;3.75;;
36839;SDS011;24406;51.640;9.566;2023-07-31T09:44:48;5.22;;;3.53;;
36839;SDS011;24406;51.640;9.566;2023-07-31T09:49:51;5.22;;;3.90;;
36839;SDS011;24406;51.640;9.566;2023-07-31T09:54:53;3.95;;;3.55;;
36839;SDS011;24406;51.640;9.566;2023-07-31T09:59:55;3.25;;;2.95;;
36839;SDS011;24406;51.640;9.566;2023-07-31T10:04:58;5.55;;;4.20;;
36839;SDS011;24406;51.640;9.566;2023-07-31T10:10:03;6.47;;;3.72;;
36839;SDS011;24406;51.640;9.566;2023-07-31T10:15:06;3.58;;;3.28;;
36839;SDS011;24406;51.640;9.566;2023-07-31T10:20:10;7.45;;;3.67;;
36839;SDS011;24406;51.640;9.566;2023-07-31T10:25:12;4.47;;;3.83;;
36839;SDS011;24406;51.640;9.566;2023-07-31T10:30:15;5.78;;;3.67;;
36839;SDS011;24406;51.640;9.566;2023-07-31T10:35:18;3.67;;;2.92;;
36839;SDS011;24406;51.640;9.566;2023-07-31T10:40:23;4.72;;;3.58;;
36839;SDS011;24406;51.640;9.566;2023-07-31T10:45:33;7.40;;;3.40;;
36839;SDS011;24406;51.640;9.566;2023-07-31T10:50:38;5.50;;;3.30;;
36839;SDS011;24406;51.640;9.566;2023-07-31T10:55:48;4.25;;;3.25;;
36839;SDS011;24406;51.640;9.566;2023-07-31T11:00:54;7.38;;;3.42;;
36839;SDS011;24406;51.640;9.566;2023-07-31T11:06:01;5.30;;;3.17;;
36839;SDS011;24406;51.640;9.566;2023-07-31T11:11:04;5.25;;;4.05;;
36839;SDS011;24406;51.640;9.566;2023-07-31T11:16:08;4.20;;;3.60;;
36839;SDS011;24406;51.640;9.566;2023-07-31T11:21:13;5.57;;;3.80;;
36839;SDS011;24406;51.640;9.566;2023-07-31T11:26:15;6.28;;;3.60;;
36839;SDS011;24406;51.640;9.566;2023-07-31T11:31:17;5.65;;;3.10;;
36839;SDS011;24406;51.640;9.566;2023-07-31T11:36:21;4.85;;;3.53;;
36839;SDS011;24406;51.640;9.566;2023-07-31T11:41:22;4.43;;;3.20;;
36839;SDS011;24406;51.640;9.566;2023-07-31T11:46:24;6.85;;;3.33;;
36839;SDS011;24406;51.640;9.566;2023-07-31T11:51:27;9.30;;;3.25;;
36839;SDS011;24406;51.640;9.566;2023-07-31T11:56:29;4.03;;;2.90;;
36839;SDS011;24406;51.640;9.566;2023-07-31T12:01:31;3.47;;;2.67;;
36839;SDS011;24406;51.640;9.566;2023-07-31T12:06:35;4.07;;;2.22;;
36839;SDS011;24406;51.640;9.566;2023-07-31T12:11:42;3.55;;;2.42;;
36839;SDS011;24406;51.640;9.566;2023-07-31T12:16:44;3.03;;;2.38;;
36839;SDS011;24406;51.640;9.566;2023-07-31T12:21:47;5.43;;;2.17;;
36839;SDS011;24406;51.640;9.566;2023-07-31T12:26:48;3.33;;;2.00;;
36839;SDS011;24406;51.640;9.566;2023-07-31T12:31:50;2.50;;;1.90;;
36839;SDS011;24406;51.640;9.566;2023-07-31T12:36:53;3.42;;;1.73;;
36839;SDS011;24406;51.640;9.566;2023-07-31T12:41:55;5.10;;;1.65;;
36839;SDS011;24406;51.640;9.566;2023-07-31T12:46:57;2.90;;;1.98;;
36839;SDS011;24406;51.640;9.566;2023-07-31T12:51:59;1.80;;;1.70;;
36839;SDS011;24406;51.640;9.566;2023-07-31T12:57:01;2.75;;;2.10;;
36839;SDS011;24406;51.640;9.566;2023-07-31T13:02:03;4.72;;;2.95;;
36839;SDS011;24406;51.640;9.566;2023-07-31T13:07:06;2.22;;;2.08;;
36839;SDS011;24406;51.640;9.566;2023-07-31T13:12:08;3.65;;;2.70;;
36839;SDS011;24406;51.640;9.566;2023-07-31T13:17:09;3.42;;;2.50;;
36839;SDS011;24406;51.640;9.566;2023-07-31T13:22:12;4.13;;;2.80;;
36839;SDS011;24406;51.640;9.566;2023-07-31T13:27:14;3.78;;;2.78;;
36839;SDS011;24406;51.640;9.566;2023-07-31T13:32:21;2.42;;;2.10;;
36839;SDS011;24406;51.640;9.566;2023-07-31T13:37:24;6.30;;;3.00;;
36839;SDS011;24406;51.640;9.566;2023-07-31T13:42:25;5.32;;;2.60;;
36839;SDS011;24406;51.640;9.566;2023-07-31T13:47:28;4.32;;;2.90;;
36839;SDS011;24406;51.640;9.566;2023-07-31T13:52:32;4.18;;;2.85;;
36839;SDS011;24406;51.640;9.566;2023-07-31T13:57:34;7.30;;;2.85;;
36839;SDS011;24406;51.640;9.566;2023-07-31T14:02:35;3.38;;;2.50;;
36839;SDS011;24406;51.640;9.566;2023-07-31T14:07:38;2.78;;;2.20;;
36839;SDS011;24406;51.640;9.566;2023-07-31T14:12:39;3.63;;;2.75;;
36839;SDS011;24406;51.640;9.566;2023-07-31T14:17:41;3.20;;;2.90;;
36839;SDS011;24406;51.640;9.566;2023-07-31T14:22:44;2.88;;;2.40;;
36839;SDS011;24406;51.640;9.566;2023-07-31T14:27:45;4.97;;;2.75;;
36839;SDS011;24406;51.640;9.566;2023-07-31T14:32:47;5.63;;;2.50;;
36839;SDS011;24406;51.640;9.566;2023-07-31T14:37:50;4.10;;;2.33;;
36839;SDS011;24406;51.640;9.566;2023-07-31T14:42:51;2.80;;;2.33;;
36839;SDS011;24406;51.640;9.566;2023-07-31T14:47:53;2.42;;;2.17;;
36839;SDS011;24406;51.640;9.566;2023-07-31T14:52:56;3.08;;;2.00;;
36839;SDS011;24406;51.640;9.566;2023-07-31T14:57:58;2.75;;;2.55;;
36839;SDS011;24406;51.640;9.566;2023-07-31T15:02:59;6.93;;;2.80;;
36839;SDS011;24406;51.640;9.566;2023-07-31T15:08:02;3.47;;;2.70;;
36839;SDS011;24406;51.640;9.566;2023-07-31T15:13:04;5.68;;;2.67;;
36839;SDS011;24406;51.640;9.566;2023-07-31T15:18:05;5.60;;;2.30;;
36839;SDS011;24406;51.640;9.566;2023-07-31T15:23:08;3.97;;;2.28;;
36839;SDS011;24406;51.640;9.566;2023-07-31T15:28:09;3.33;;;2.03;;
36839;SDS011;24406;51.640;9.566;2023-07-31T15:33:11;2.17;;;1.98;;
36839;SDS011;24406;51.640;9.566;2023-07-31T15:38:14;2.90;;;2.03;;
36839;SDS011;24406;51.640;9.566;2023-07-31T15:43:16;2.30;;;2.10;;
36839;SDS011;24406;51.640;9.566;2023-07-31T15:48:27;3.85;;;2.45;;
36839;SDS011;24406;51.640;9.566;2023-07-31T15:53:30;3.05;;;1.98;;
36839;SDS011;24406;51.640;9.566;2023-07-31T15:58:32;3.00;;;2.10;;
36839;SDS011;24406;51.640;9.566;2023-07-31T16:03:33;4.05;;;2.08;;
36839;SDS011;24406;51.640;9.566;2023-07-31T16:08:38;3.35;;;2.30;;
36839;SDS011;24406;51.640;9.566;2023-07-31T16:13:41;3.50;;;2.25;;
36839;SDS011;24406;51.640;9.566;2023-07-31T16:18:43;2.78;;;2.15;;
36839;SDS011;24406;51.640;9.566;2023-07-31T16:23:45;4.53;;;1.95;;
36839;SDS011;24406;51.640;9.566;2023-07-31T16:28:47;1.88;;;1.77;;
36839;SDS011;24406;51.640;9.566;2023-07-31T16:33:48;3.17;;;2.13;;
36839;SDS011;24406;51.640;9.566;2023-07-31T16:38:51;2.83;;;2.22;;
36839;SDS011;24406;51.640;9.566;2023-07-31T16:43:53;3.80;;;2.20;;
36839;SDS011;24406;51.640;9.566;2023-07-31T16:48:54;2.63;;;2.05;;
36839;SDS011;24406;51.640;9.566;2023-07-31T16:53:57;2.13;;;1.83;;
36839;SDS011;24406;51.640;9.566;2023-07-31T16:58:59;3.70;;;2.10;;
36839;SDS011;24406;51.640;9.566;2023-07-31T17:04:01;3.47;;;2.28;;
36839;SDS011;24406;51.640;9.566;2023-07-31T17:09:03;2.92;;;1.83;;
36839;SDS011;24406;51.640;9.566;2023-07-31T17:14:05;2.42;;;2.10;;
36839;SDS011;24406;51.640;9.566;2023-07-31T17:19:07;3.58;;;1.95;;
36839;SDS011;24406;51.640;9.566;2023-07-31T17:24:10;2.40;;;2.20;;
36839;SDS011;24406;51.640;9.566;2023-07-31T17:29:14;3.55;;;2.60;;
36839;SDS011;24406;51.640;9.566;2023-07-31T17:34:16;4.82;;;2.70;;
36839;SDS011;24406;51.640;9.566;2023-07-31T17:39:19;4.68;;;3.00;;
36839;SDS011;24406;51.640;9.566;2023-07-31T17:44:20;4.30;;;3.38;;
36839;SDS011;24406;51.640;9.566;2023-07-31T17:49:22;6.03;;;4.05;;
36839;SDS011;24406;51.640;9.566;2023-07-31T17:54:25;3.83;;;2.88;;
36839;SDS011;24406;51.640;9.566;2023-07-31T17:59:27;4.18;;;2.90;;
36839;SDS011;24406;51.640;9.566;2023-07-31T18:04:29;3.88;;;2.78;;
36839;SDS011;24406;51.640;9.566;2023-07-31T18:09:31;3.92;;;2.70;;
36839;SDS011;24406;51.640;9.566;2023-07-31T18:14:34;4.68;;;2.97;;
36839;SDS011;24406;51.640;9.566;2023-07-31T18:19:37;4.70;;;3.20;;
36839;SDS011;24406;51.640;9.566;2023-07-31T18:24:40;6.43;;;3.00;;
36839;SDS011;24406;51.640;9.566;2023-07-31T18:29:42;7.35;;;3.17;;
36839;SDS011;24406;51.640;9.566;2023-07-31T18:34:43;4.90;;;2.92;;
36839;SDS011;24406;51.640;9.566;2023-07-31T18:39:46;6.80;;;2.80;;
36839;SDS011;24406;51.640;9.566;2023-07-31T18:44:48;5.65;;;3.20;;
36839;SDS011;24406;51.640;9.566;2023-07-31T18:49:50;5.30;;;3.20;;
36839;SDS011;24406;51.640;9.566;2023-07-31T18:54:53;4.20;;;3.03;;
36839;SDS011;24406;51.640;9.566;2023-07-31T18:59:54;6.43;;;2.72;;
36839;SDS011;24406;51.640;9.566;2023-07-31T19:04:56;4.38;;;3.28;;
36839;SDS011;24406;51.640;9.566;2023-07-31T19:09:59;5.07;;;3.63;;
36839;SDS011;24406;51.640;9.566;2023-07-31T19:15:00;5.32;;;3.53;;
36839;SDS011;24406;51.640;9.566;2023-07-31T19:20:02;4.95;;;3.85;;
36839;SDS011;24406;51.640;9.566;2023-07-31T19:25:06;4.93;;;3.50;;
36839;SDS011;24406;51.640;9.566;2023-07-31T19:30:08;4.00;;;3.60;;
36839;SDS011;24406;51.640;9.566;2023-07-31T19:35:11;4.38;;;3.80;;
36839;SDS011;24406;51.640;9.566;2023-07-31T19:40:14;4.20;;;3.15;;
36839;SDS011;24406;51.640;9.566;2023-07-31T19:45:16;4.57;;;3.47;;
36839;SDS011;24406;51.640;9.566;2023-07-31T19:50:20;5.28;;;3.35;;
36839;SDS011;24406;51.640;9.566;2023-07-31T19:55:31;4.82;;;3.80;;
36839;SDS011;24406;51.640;9.566;2023-07-31T20:00:36;5.63;;;3.85;;
36839;SDS011;24406;51.640;9.566;2023-07-31T20:05:38;5.78;;;4.13;;
36839;SDS011;24406;51.640;9.566;2023-07-31T20:10:43;5.53;;;3.70;;
36839;SDS011;24406;51.640;9.566;2023-07-31T20:15:45;8.00;;;4.75;;
36839;SDS011;24406;51.640;9.566;2023-07-31T20:20:53;9.07;;;4.80;;
36839;SDS011;24406;51.640;9.566;2023-07-31T20:26:08;6.18;;;3.92;;
36839;SDS011;24406;51.640;9.566;2023-07-31T20:31:53;7.68;;;4.68;;
36839;SDS011;24406;51.640;9.566;2023-07-31T20:37:11;8.02;;;4.30;;
36839;SDS011;24406;51.640;9.566;2023-07-31T20:42:34;5.50;;;4.32;;
36839;SDS011;24406;51.640;9.566;2023-07-31T20:47:36;7.25;;;3.95;;
36839;SDS011;24406;51.640;9.566;2023-07-31T20:52:46;6.35;;;4.32;;
36839;SDS011;24406;51.640;9.566;2023-07-31T20:57:51;6.70;;;3.83;;
36839;SDS011;24406;51.640;9.566;2023-07-31T21:08:38;6.75;;;3.63;;
36839;SDS011;24406;51.640;9.566;2023-07-31T21:14:13;4.47;;;3.92;;
36839;SDS011;24406;51.640;9.566;2023-07-31T21:25:00;7.55;;;3.70;;
36839;SDS011;24406;51.640;9.566;2023-07-31T21:30:23;3.67;;;3.10;;
36839;SDS011;24406;51.640;9.566;2023-07-31T21:35:33;3.95;;;3.25;;
36839;SDS011;24406;51.640;9.566;2023-07-31T21:40:40;4.28;;;3.03;;
36839;SDS011;24406;51.640;9.566;2023-07-31T21:45:55;3.58;;;2.83;;
36839;SDS011;24406;51.640;9.566;2023-07-31T21:50:59;3.07;;;2.73;;
36839;SDS011;24406;51.640;9.566;2023-07-31T21:56:03;3.13;;;2.63;;
36839;SDS011;24406;51.640;9.566;2023-07-31T22:01:06;3.35;;;2.15;;
36839;SDS011;24406;51.640;9.566;2023-07-31T22:06:08;2.90;;;2.50;;
36839;SDS011;24406;51.640;9.566;2023-07-31T22:11:29;2.40;;;2.20;;
36839;SDS011;24406;51.640;9.566;2023-07-31T22:16:42;2.38;;;2.13;;
36839;SDS011;24406;51.640;9.566;2023-07-31T22:21:51;4.38;;;2.47;;
36839;SDS011;24406;51.640;9.566;2023-07-31T22:27:01;3.63;;;2.13;;
36839;SDS011;24406;51.640;9.566;2023-07-31T22:32:27;2.97;;;2.67;;
36839;SDS011;24406;51.640;9.566;2023-07-31T22:37:31;2.92;;;2.40;;
36839;SDS011;24406;51.640;9.566;2023-07-31T22:42:33;2.70;;;2.00;;
36839;SDS011;24406;51.640;9.566;2023-07-31T22:47:36;3.28;;;2.20;;
36839;SDS011;24406;51.640;9.566;2023-07-31T22:52:40;2.63;;;2.42;;
36839;SDS011;24406;51.640;9.566;2023-07-31T22:57:42;2.80;;;2.17;;
36839;SDS011;24406;51.640;9.566;2023-07-31T23:02:45;1.83;;;1.70;;
36839;SDS011;24406;51.640;9.566;2023-07-31T23:07:46;3.45;;;2.05;;
36839;SDS011;24406;51.640;9.566;2023-07-31T23:12:48;3.78;;;1.88;;
36839;SDS011;24406;51.640;9.566;2023-07-31T23:17:51;2.22;;;1.83;;
36839;SDS011;24406;51.640;9.566;2023-07-31T23:22:52;3.22;;;1.70;;
36839;SDS011;24406;51.640;9.566;2023-07-31T23:27:54;3.15;;;1.60;;
36839;SDS011;24406;51.640;9.566;2023-07-31T23:32:57;1.95;;;1.80;;
36839;SDS011;24406;51.640;9.566;2023-07-31T23:37:58;3.78;;;1.60;;
36839;SDS011;24406;51.640;9.566;2023-07-31T23:43:00;2.85;;;1.70;;
36839;SDS011;24406;51.640;9.566;2023-07-31T23:48:03;2.65;;;1.70;;
36839;SDS011;24406;51.640;9.566;2023-07-31T23:53:05;2.90;;;2.10;;
36839;SDS011;24406;51.640;9.566;2023-07-31T23:58:06;4.15;;;2.22;;
